Time;durP1;ratioP1;P1;durP2;ratioP2;P2;SDS_P1;SDS_P2;PMS_P1;PMS_P2;Temp;Humidity;BMP_temperature;BMP_pressure;BME280_temperature;BME280_humidity;BME280_pressure;Samples;Min_cycle;Max_cycle;Signal;HPM_P1;HPM_P2
2024/01/22 00:01:42;;;;;;;2.47;1.08;;;;;;;14.85;48.98;100964.16;4994188;28;20113;-63
2024/01/22 00:04:08;;;;;;;3.80;1.30;;;;;;;14.86;49.31;100961.28;4996262;28;20081;-64
2024/01/22 00:06:37;;;;;;;3.00;1.10;;;;;;;14.90;50.05;100986.13;4972864;28;20445;-64
2024/01/22 00:09:03;;;;;;;3.45;1.25;;;;;;;14.90;49.58;100989.66;4975056;28;20038;-64
2024/01/22 00:11:29;;;;;;;5.43;1.10;;;;;;;14.92;50.33;100949.03;4974285;28;20050;-63
2024/01/22 00:13:55;;;;;;;3.78;1.10;;;;;;;14.94;49.80;100930.84;4956704;28;20082;-64
2024/01/22 00:16:21;;;;;;;2.20;1.00;;;;;;;14.96;49.73;100918.06;4975101;28;20090;-64
2024/01/22 00:18:47;;;;;;;6.22;1.25;;;;;;;14.98;49.44;100916.06;4974987;28;20038;-64
2024/01/22 00:21:12;;;;;;;2.83;1.20;;;;;;;15.00;50.09;100908.66;4974129;28;20023;-63
2024/01/22 00:23:38;;;;;;;3.17;1.13;;;;;;;15.04;49.91;100920.84;4974902;28;20548;-64
2024/01/22 00:26:03;;;;;;;3.53;1.23;;;;;;;15.03;48.85;100870.56;4973513;28;20030;-63
2024/01/22 00:28:29;;;;;;;2.60;1.17;;;;;;;15.06;50.21;100864.88;4957562;28;20023;-63
2024/01/22 00:30:54;;;;;;;3.83;1.00;;;;;;;15.09;49.25;100872.66;4957564;28;20034;-63
2024/01/22 00:33:20;;;;;;;1.73;1.30;;;;;;;15.10;49.56;100871.66;4957588;28;20025;-63
2024/01/22 00:35:45;;;;;;;3.17;1.27;;;;;;;15.09;50.25;100854.63;4973768;28;20516;-63
2024/01/22 00:38:10;;;;;;;2.65;1.00;;;;;;;15.12;49.58;100842.66;4975291;28;20378;-63
2024/01/22 00:40:36;;;;;;;4.90;1.08;;;;;;;15.14;48.83;100841.50;4975337;28;20045;-63
2024/01/22 00:43:01;;;;;;;2.45;1.13;;;;;;;15.16;49.37;100806.25;4976070;28;20034;-64
2024/01/22 00:45:26;;;;;;;1.42;0.85;;;;;;;15.16;49.22;100819.72;4980493;28;20025;-63
2024/01/22 00:47:52;;;;;;;1.88;0.90;;;;;;;15.18;50.10;100819.59;4978919;28;20027;-63
2024/01/22 00:50:18;;;;;;;3.85;1.38;;;;;;;15.19;50.30;100794.31;4980192;28;20026;-63
2024/01/22 00:52:43;;;;;;;1.25;1.05;;;;;;;15.19;50.09;100794.31;4977175;28;20074;-63
2024/01/22 00:55:09;;;;;;;5.72;0.85;;;;;;;15.22;49.46;100785.88;4974786;28;20042;-63
2024/01/22 00:57:37;;;;;;;1.00;0.80;;;;;;;15.23;49.37;100757.88;4974846;28;20078;-63
2024/01/22 01:00:03;;;;;;;1.52;1.00;;;;;;;15.24;49.08;100781.19;4974760;28;20497;-63
2024/01/22 01:02:29;;;;;;;2.22;0.90;;;;;;;15.23;49.19;100755.19;4973365;28;20089;-63
2024/01/22 01:04:55;;;;;;;6.85;1.00;;;;;;;15.24;48.96;100765.84;4989626;28;20487;-63
2024/01/22 01:07:20;;;;;;;1.70;0.88;;;;;;;15.27;49.77;100745.78;4973730;28;20522;-63
2024/01/22 01:09:46;;;;;;;2.97;0.65;;;;;;;15.29;48.60;100741.06;4973401;28;20392;-63
2024/01/22 01:12:11;;;;;;;2.10;0.70;;;;;;;15.30;49.54;100729.25;4973652;28;20100;-63
2024/01/22 01:14:36;;;;;;;4.05;0.80;;;;;;;15.33;49.69;100729.75;4973429;28;20034;-63
2024/01/22 01:17:02;;;;;;;0.85;0.80;;;;;;;15.37;48.86;100770.78;4974334;28;20482;-63
2024/01/22 01:19:28;;;;;;;1.50;0.43;;;;;;;15.39;48.64;100742.63;4973567;28;20386;-63
2024/01/22 01:21:53;;;;;;;1.38;1.00;;;;;;;15.40;49.12;100733.53;4973146;28;20113;-63
2024/01/22 01:24:18;;;;;;;1.40;0.82;;;;;;;15.47;48.57;100739.97;4957193;28;20038;-63
2024/01/22 01:26:44;;;;;;;2.55;1.30;;;;;;;15.50;49.72;100738.81;4956947;28;20494;-63
2024/01/22 01:29:09;;;;;;;2.08;1.02;;;;;;;15.49;49.50;100742.53;4973029;28;20031;-64
2024/01/22 01:31:35;;;;;;;0.55;0.52;;;;;;;15.52;48.55;100743.03;4973058;28;20061;-63
2024/01/22 01:34:01;;;;;;;0.90;0.63;;;;;;;15.53;48.92;100765.47;4956855;28;20046;-64
2024/01/22 01:36:26;;;;;;;1.50;0.63;;;;;;;15.53;49.06;100771.72;4973190;28;20050;-63
2024/01/22 01:38:51;;;;;;;1.02;0.50;;;;;;;15.54;49.77;100786.94;4956723;28;20058;-63
2024/01/22 01:41:17;;;;;;;5.38;0.95;;;;;;;15.57;48.74;100783.06;4972998;28;20035;-63
2024/01/22 01:43:42;;;;;;;5.93;1.17;;;;;;;15.57;49.29;100789.31;4973277;28;20122;-64
2024/01/22 01:46:08;;;;;;;3.20;0.70;;;;;;;15.58;48.75;100790.97;4972825;28;20031;-64
2024/01/22 01:48:33;;;;;;;3.45;1.00;;;;;;;15.57;49.01;100773.13;4968404;28;20038;-63
2024/01/22 01:51:00;;;;;;;0.95;0.77;;;;;;;15.60;48.73;100789.00;4953380;28;20046;-63
2024/01/22 01:53:26;;;;;;;0.75;0.55;;;;;;;15.61;48.55;100752.84;4955131;28;20043;-63
2024/01/22 01:55:52;;;;;;;1.52;0.85;;;;;;;15.62;49.80;100762.66;4953539;28;20038;-63
2024/01/22 01:58:21;;;;;;;0.82;0.70;;;;;;;15.65;49.79;100754.22;4953660;28;20027;-63
2024/01/22 02:00:51;;;;;;;1.08;0.93;;;;;;;15.69;48.58;100741.22;4953591;28;20032;-63
2024/01/22 02:03:17;;;;;;;4.00;1.13;;;;;;;15.69;48.78;100749.31;4953573;28;20031;-63
2024/01/22 02:05:42;;;;;;;2.60;0.90;;;;;;;15.68;48.91;100732.31;4937475;29;20391;-63
2024/01/22 02:08:08;;;;;;;0.65;0.50;;;;;;;15.68;48.62;100704.44;4969492;28;20040;-63
2024/01/22 02:10:33;;;;;;;3.13;0.82;;;;;;;15.68;49.15;100705.31;4953015;28;20043;-63
2024/01/22 02:13:01;;;;;;;1.80;0.77;;;;;;;15.70;48.51;100687.06;4953594;28;20058;-64
2024/01/22 02:15:26;;;;;;;1.52;1.10;;;;;;;15.72;49.87;100698.53;4954746;28;20052;-64
2024/01/22 02:17:51;;;;;;;1.83;1.02;;;;;;;15.72;49.54;100684.19;4953604;28;20111;-63
2024/01/22 02:20:17;;;;;;;0.47;0.47;;;;;;;15.72;50.31;100674.25;4954493;28;20036;-64
2024/01/22 02:22:42;;;;;;;0.93;0.52;;;;;;;15.73;49.38;100639.97;4959964;28;20082;-63
2024/01/22 02:25:08;;;;;;;1.23;0.68;;;;;;;15.76;49.33;100647.75;4973828;28;20039;-64
2024/01/22 02:27:33;;;;;;;1.92;0.80;;;;;;;15.82;50.11;100662.44;4956522;28;20570;-64
2024/01/22 02:29:58;;;;;;;1.05;0.63;;;;;;;15.85;49.98;100641.34;4975947;28;20567;-63
2024/01/22 02:32:24;;;;;;;1.58;1.35;;;;;;;15.88;49.23;100642.88;4976284;28;20380;-63
2024/01/22 02:34:49;;;;;;;1.50;0.88;;;;;;;15.90;49.19;100627.34;4960015;28;20442;-63
2024/01/22 02:37:15;;;;;;;1.25;0.70;;;;;;;15.91;49.12;100646.09;4977309;28;20458;-64
2024/01/22 02:39:41;;;;;;;1.67;0.70;;;;;;;15.95;49.10;100651.97;4976214;28;20119;-63
2024/01/22 02:42:06;;;;;;;1.00;0.82;;;;;;;15.94;49.31;100636.81;4975767;28;20528;-63
2024/01/22 02:44:34;;;;;;;1.13;0.70;;;;;;;15.94;49.79;100623.28;4976077;28;20114;-63
2024/01/22 02:47:00;;;;;;;2.80;1.00;;;;;;;15.96;49.75;100619.41;4975990;28;20129;-64
2024/01/22 02:49:26;;;;;;;1.75;0.77;;;;;;;15.97;49.16;100618.38;4975944;28;20050;-64
2024/01/22 02:51:52;;;;;;;1.35;0.70;;;;;;;15.97;49.97;100629.19;4977130;28;20037;-63
2024/01/22 02:54:17;;;;;;;0.90;0.70;;;;;;;15.97;49.81;100612.16;4959767;28;20031;-63
2024/01/22 02:56:42;;;;;;;1.63;0.70;;;;;;;15.98;49.41;100605.72;4976042;28;20058;-64
2024/01/22 02:59:08;;;;;;;1.45;0.65;;;;;;;15.99;49.24;100612.81;4975923;28;20031;-64
2024/01/22 03:01:33;;;;;;;1.50;1.40;;;;;;;15.99;50.72;100600.16;4959553;28;20380;-63
2024/01/22 03:03:58;;;;;;;1.00;0.82;;;;;;;16.01;49.59;100594.56;4956446;29;20077;-64
2024/01/22 03:06:24;;;;;;;2.92;0.60;;;;;;;15.98;50.32;100581.41;4964444;28;20126;-64
2024/01/22 03:08:49;;;;;;;5.38;0.70;;;;;;;16.01;50.21;100573.81;4975611;28;20051;-63
2024/01/22 03:11:15;;;;;;;3.13;0.57;;;;;;;16.04;49.51;100570.75;4976528;28;20076;-63
2024/01/22 03:13:40;;;;;;;0.60;0.60;;;;;;;16.08;50.09;100566.69;4975551;28;20065;-63
2024/01/22 03:16:06;;;;;;;0.93;0.50;;;;;;;16.11;49.13;100565.50;4976673;28;20499;-63
2024/01/22 03:18:31;;;;;;;0.70;0.50;;;;;;;16.12;50.75;100576.16;4975438;28;20502;-63
2024/01/22 03:20:57;;;;;;;0.75;0.45;;;;;;;16.15;50.41;100566.84;4959462;28;20077;-65
2024/01/22 03:23:22;;;;;;;0.88;0.55;;;;;;;16.15;50.24;100561.47;4975782;28;20398;-65
2024/01/22 03:25:47;;;;;;;3.10;0.38;;;;;;;16.19;49.34;100562.81;4976724;28;20029;-65
2024/01/22 03:28:12;;;;;;;1.05;0.40;;;;;;;16.18;49.75;100561.13;4959245;28;20042;-63
2024/01/22 03:30:38;;;;;;;4.38;0.82;;;;;;;16.21;50.75;100555.38;4975499;28;20031;-63
2024/01/22 03:33:03;;;;;;;1.02;0.47;;;;;;;16.24;50.21;100544.22;4975609;28;20045;-64
2024/01/22 03:35:29;;;;;;;0.47;0.47;;;;;;;16.27;49.75;100536.59;4975105;28;20039;-64
2024/01/22 03:37:54;;;;;;;0.50;0.40;;;;;;;16.20;49.72;100534.75;4983795;28;20471;-64
2024/01/22 03:40:19;;;;;;;2.50;0.60;;;;;;;16.21;50.11;100531.91;4994765;28;20045;-63
2024/01/22 03:42:45;;;;;;;2.47;0.68;;;;;;;16.28;50.56;100534.72;4993906;28;20034;-63
2024/01/22 03:45:10;;;;;;;0.98;0.38;;;;;;;16.22;50.44;100530.00;4994293;28;20490;-63
2024/01/22 03:47:35;;;;;;;0.40;0.40;;;;;;;16.14;50.16;100520.06;4994424;28;20093;-63
2024/01/22 03:50:03;;;;;;;1.65;0.60;;;;;;;16.07;49.92;100512.84;4994287;28;20042;-62
2024/01/22 03:52:28;;;;;;;1.10;0.52;;;;;;;16.00;50.69;100538.84;4994590;28;20063;-63
2024/01/22 03:54:54;;;;;;;1.60;0.50;;;;;;;15.92;51.52;100515.38;4994267;28;20532;-63
2024/01/22 03:57:19;;;;;;;1.52;0.50;;;;;;;15.86;51.92;100507.13;4978892;28;20030;-63
2024/01/22 03:59:46;;;;;;;0.38;0.38;;;;;;;15.78;50.88;100499.88;4978235;28;20160;-62
2024/01/22 04:02:11;;;;;;;1.15;0.30;;;;;;;15.77;52.06;100494.66;4994535;28;20046;-63
2024/01/22 04:04:37;;;;;;;1.83;0.65;;;;;;;15.73;51.35;100491.44;4995443;28;20034;-63
2024/01/22 04:07:03;;;;;;;1.15;0.52;;;;;;;15.70;51.81;100497.19;4994378;28;20057;-63
2024/01/22 04:09:29;;;;;;;1.85;0.68;;;;;;;15.69;51.95;100484.69;4995217;28;20054;-63
2024/01/22 04:11:54;;;;;;;0.63;0.50;;;;;;;15.66;52.51;100469.66;4977961;28;20034;-63
2024/01/22 04:14:20;;;;;;;4.75;0.50;;;;;;;15.64;52.34;100465.47;4995221;28;20413;-63
2024/01/22 04:16:45;;;;;;;5.05;0.50;;;;;;;15.61;52.25;100466.66;4995058;28;20041;-63
2024/01/22 04:19:10;;;;;;;1.27;0.40;;;;;;;15.59;51.33;100468.69;4993908;28;20030;-63
2024/01/22 04:21:44;;;;;;;0.52;0.50;;;;;;;15.61;51.92;100476.59;4977434;28;20030;-63
2024/01/22 04:24:09;;;;;;;3.72;0.52;;;;;;;15.56;51.79;100463.63;4993643;28;20125;-63
2024/01/22 04:26:34;;;;;;;1.02;0.40;;;;;;;15.57;51.90;100470.72;4993616;28;20114;-63
2024/01/22 04:29:00;;;;;;;2.97;0.30;;;;;;;15.59;51.95;100484.88;4977359;28;20486;-63
2024/01/22 04:31:25;;;;;;;0.65;0.47;;;;;;;15.60;51.33;100483.88;4993636;28;20564;-63
2024/01/22 04:33:50;;;;;;;2.83;0.52;;;;;;;15.61;53.16;100482.84;4993683;28;20071;-63
2024/01/22 04:36:16;;;;;;;0.57;0.57;;;;;;;15.65;51.81;100484.22;4993456;28;20034;-63
2024/01/22 04:38:42;;;;;;;5.57;0.40;;;;;;;15.64;53.13;100482.50;4994839;28;20037;-63
2024/01/22 04:41:07;;;;;;;0.45;0.40;;;;;;;15.67;52.21;100476.78;4994832;28;20037;-63
2024/01/22 04:43:33;;;;;;;1.65;0.52;;;;;;;15.68;52.04;100467.66;4993323;28;20395;-63
2024/01/22 04:45:58;;;;;;;0.77;0.45;;;;;;;15.64;52.71;100477.09;4995064;28;20096;-63
2024/01/22 04:48:24;;;;;;;2.63;0.40;;;;;;;15.66;52.26;100474.25;4993607;28;20049;-63
2024/01/22 04:50:49;;;;;;;1.40;0.57;;;;;;;15.67;52.80;100471.38;4996151;28;20062;-63
2024/01/22 04:53:15;;;;;;;1.10;0.28;;;;;;;15.68;52.78;100456.88;4996201;28;20398;-63
2024/01/22 04:55:40;;;;;;;3.28;1.00;;;;;;;15.72;52.76;100469.00;4994850;28;20030;-63
2024/01/22 04:58:06;;;;;;;0.70;0.45;;;;;;;15.73;53.15;100459.88;4979493;28;20117;-63
2024/01/22 05:00:31;;;;;;;0.70;0.35;;;;;;;15.72;53.02;100452.78;4996666;28;20058;-63
2024/01/22 05:02:57;;;;;;;1.65;0.40;;;;;;;15.73;53.37;100446.38;4995960;28;20050;-63
2024/01/22 05:05:22;;;;;;;1.60;0.55;;;;;;;15.74;53.19;100437.25;4997448;28;20031;-63
2024/01/22 05:07:47;;;;;;;0.45;0.25;;;;;;;15.74;52.55;100449.94;4994188;28;20117;-63
2024/01/22 05:10:14;;;;;;;0.40;0.30;;;;;;;15.74;52.21;100450.75;4993453;28;20101;-63
2024/01/22 05:12:42;;;;;;;0.50;0.30;;;;;;;15.78;52.69;100445.00;4992205;28;20027;-63
2024/01/22 05:15:09;;;;;;;1.45;0.38;;;;;;;15.83;53.51;100443.47;4990025;28;20034;-63
2024/01/22 05:17:34;;;;;;;2.40;0.63;;;;;;;15.86;53.27;100436.88;4991918;28;20038;-63
2024/01/22 05:20:00;;;;;;;0.63;0.13;;;;;;;15.93;53.57;100441.44;4991962;28;20040;-63
2024/01/22 05:22:25;;;;;;;0.82;0.28;;;;;;;16.00;52.75;100425.38;4991530;28;20046;-63
2024/01/22 05:24:50;;;;;;;1.25;0.30;;;;;;;16.05;52.92;100436.53;4991847;28;20034;-63
2024/01/22 05:27:16;;;;;;;0.15;0.15;;;;;;;16.12;52.91;100413.16;4975573;28;20034;-63
2024/01/22 05:29:42;;;;;;;2.38;0.30;;;;;;;16.19;53.25;100433.91;4991452;28;20556;-63
2024/01/22 05:32:07;;;;;;;0.73;0.20;;;;;;;16.26;52.17;100439.47;4991609;28;20126;-64
2024/01/22 05:34:33;;;;;;;0.15;0.10;;;;;;;16.31;52.22;100426.25;4992030;28;20484;-63
2024/01/22 05:36:58;;;;;;;0.32;0.10;;;;;;;16.34;52.38;100442.13;4991763;28;20026;-64
2024/01/22 05:39:23;;;;;;;0.30;0.25;;;;;;;16.38;52.61;100415.59;4972287;28;20521;-63
2024/01/22 05:41:49;;;;;;;0.35;0.20;;;;;;;16.42;52.84;100436.69;4956199;28;20520;-63
2024/01/22 05:44:14;;;;;;;0.47;0.10;;;;;;;16.46;52.53;100438.03;4973573;28;20398;-63
2024/01/22 05:46:40;;;;;;;0.15;0.10;;;;;;;16.51;52.22;100438.34;4972445;28;20035;-64
2024/01/22 05:49:05;;;;;;;0.45;0.10;;;;;;;16.54;51.93;100440.72;4988462;28;20026;-63
2024/01/22 05:51:31;;;;;;;0.63;0.20;;;;;;;16.58;52.41;100423.09;4991809;28;20030;-63
2024/01/22 05:53:56;;;;;;;0.77;0.40;;;;;;;16.59;51.77;100422.09;4991702;28;20039;-63
2024/01/22 05:56:25;;;;;;;0.68;0.22;;;;;;;16.63;52.91;100411.78;4992997;28;20030;-63
2024/01/22 05:58:51;;;;;;;1.23;0.30;;;;;;;16.65;52.42;100407.88;4992959;28;20510;-63
2024/01/22 06:01:24;;;;;;;0.20;0.20;;;;;;;16.66;51.94;100414.13;4975412;28;20069;-63
2024/01/22 06:03:49;;;;;;;;;;;;;;;16.68;51.49;100412.91;4993687;28;20030;-63
2024/01/22 06:06:15;;;;;;;0.32;0.20;;;;;;;16.68;51.16;100396.69;4995018;28;19973;-63
2024/01/22 06:08:46;;;;;;;0.70;0.40;;;;;;;16.70;51.72;100428.97;4978729;28;20443;-63
2024/01/22 06:11:13;;;;;;;0.17;0.17;;;;;;;16.72;52.48;100408.81;4942069;28;1560330;-62
2024/01/22 06:13:39;;;;;;;2.38;0.30;;;;;;;16.75;51.70;100422.00;4996388;28;20050;-63
2024/01/22 06:16:08;;;;;;;0.20;0.20;;;;;;;16.77;51.24;100401.03;4996366;28;20046;-63
2024/01/22 06:18:34;;;;;;;0.22;0.20;;;;;;;16.77;52.02;100413.72;4997660;28;20065;-64
2024/01/22 06:21:00;;;;;;;0.45;0.13;;;;;;;16.79;51.25;100414.38;4978860;28;20049;-62
2024/01/22 06:23:25;;;;;;;2.10;0.30;;;;;;;16.80;52.18;100397.97;4997450;28;20474;-63
2024/01/22 06:25:50;;;;;;;0.25;0.20;;;;;;;16.85;51.83;100400.13;4996158;28;20030;-62
2024/01/22 06:28:16;;;;;;;0.50;0.10;;;;;;;16.86;52.11;100405.34;4997199;28;20126;-62
2024/01/22 06:30:41;;;;;;;0.20;0.20;;;;;;;16.88;51.65;100403.31;4961260;28;20526;-63
2024/01/22 06:33:08;;;;;;;0.25;0.20;;;;;;;16.93;52.58;100396.50;4995182;28;20037;-63
2024/01/22 06:35:34;;;;;;;1.60;0.35;;;;;;;16.94;52.36;100393.66;4997263;28;20046;-63
2024/01/22 06:37:59;;;;;;;0.82;0.28;;;;;;;16.99;52.38;100409.31;4995784;28;20035;-63
2024/01/22 06:40:24;;;;;;;0.52;0.32;;;;;;;17.00;52.13;100413.72;4996882;28;20045;-63
2024/01/22 06:42:50;;;;;;;2.17;0.40;;;;;;;17.04;52.35;100409.63;4995685;28;20080;-63
2024/01/22 06:45:15;;;;;;;0.77;0.45;;;;;;;17.06;51.58;100402.16;4995556;28;20039;-65
2024/01/22 06:47:40;;;;;;;1.80;0.28;;;;;;;17.06;52.10;100427.34;4995394;28;20041;-65
2024/01/22 06:50:06;;;;;;;0.73;0.30;;;;;;;17.10;51.66;100422.44;4997033;28;20437;-65
2024/01/22 06:52:31;;;;;;;2.33;0.20;;;;;;;17.13;51.70;100425.63;4995001;28;20413;-64
2024/01/22 06:54:57;;;;;;;0.40;0.40;;;;;;;17.14;52.12;100426.47;4996724;28;20040;-62
2024/01/22 06:57:22;;;;;;;0.22;0.22;;;;;;;17.19;51.67;100437.59;4995414;28;20038;-64
2024/01/22 06:59:48;;;;;;;0.60;0.30;;;;;;;17.20;52.43;100440.09;4995352;28;20406;-63
2024/01/22 07:02:14;;;;;;;0.68;0.38;;;;;;;17.22;52.28;100429.09;4995569;28;20046;-63
2024/01/22 07:04:39;;;;;;;1.75;0.38;;;;;;;17.21;51.71;100430.13;4995113;28;20041;-63
2024/01/22 07:07:05;;;;;;;0.55;0.40;;;;;;;17.22;51.41;100458.88;4979015;28;20026;-66
2024/01/22 07:09:30;;;;;;;1.63;0.75;;;;;;;17.22;51.85;100458.88;4995224;28;20046;-61
2024/01/22 07:11:55;;;;;;;4.45;0.60;;;;;;;17.21;52.63;100457.19;4978859;28;20045;-62
2024/01/22 07:14:21;;;;;;;0.40;0.40;;;;;;;17.20;52.43;100463.63;4995494;28;20022;-61
2024/01/22 07:16:47;;;;;;;0.52;0.52;;;;;;;17.16;52.08;100470.44;4996121;28;20015;-61
2024/01/22 07:19:12;;;;;;;0.50;0.50;;;;;;;17.15;52.30;100468.72;4995280;28;20092;-62
2024/01/22 07:21:37;;;;;;;2.63;0.77;;;;;;;17.11;52.05;100484.50;4995145;28;20030;-61
2024/01/22 07:24:03;;;;;;;1.42;0.50;;;;;;;17.10;52.51;100488.22;4979001;28;20020;-61
2024/01/22 07:26:28;;;;;;;0.93;0.30;;;;;;;17.08;52.63;100484.03;4996198;28;20105;-61
2024/01/22 07:28:54;;;;;;;2.63;0.30;;;;;;;17.04;53.25;100479.97;4986227;28;20022;-61
2024/01/22 07:31:19;;;;;;;1.92;0.40;;;;;;;17.03;52.50;100473.72;4995493;28;20030;-62
2024/01/22 07:33:44;;;;;;;0.25;0.20;;;;;;;16.98;52.86;100488.81;4995165;28;20106;-61
2024/01/22 07:36:10;;;;;;;0.68;0.52;;;;;;;16.96;52.83;100474.63;4994889;28;20019;-61
2024/01/22 07:38:36;;;;;;;0.73;0.40;;;;;;;16.95;53.32;100484.59;4994944;28;20105;-61
2024/01/22 07:41:02;;;;;;;1.80;0.95;;;;;;;16.94;52.89;100482.09;4994739;28;20533;-61
2024/01/22 07:43:27;;;;;;;0.80;0.32;;;;;;;16.97;53.43;100487.16;4978638;28;20026;-61
2024/01/22 07:45:52;;;;;;;0.40;0.40;;;;;;;16.95;53.35;100486.44;4995876;28;20402;-61
2024/01/22 07:48:19;;;;;;;0.40;0.40;;;;;;;16.97;53.34;100484.44;4994715;28;20018;-61
2024/01/22 07:50:44;;;;;;;1.88;0.38;;;;;;;16.93;52.94;100485.81;4996087;28;20076;-62
2024/01/22 07:53:11;;;;;;;0.30;0.30;;;;;;;16.91;53.47;100475.16;4994588;28;20038;-62
2024/01/22 07:55:36;;;;;;;2.15;0.30;;;;;;;16.96;53.14;100486.28;4995860;28;20552;-61
2024/01/22 07:58:02;;;;;;;3.78;0.80;;;;;;;16.94;52.45;100485.63;4995623;28;20026;-62
2024/01/22 08:00:28;;;;;;;1.13;0.57;;;;;;;16.96;52.90;100477.31;4995794;28;20105;-61
2024/01/22 08:02:53;;;;;;;2.22;0.45;;;;;;;16.94;52.74;100472.09;4994909;28;20485;-61
2024/01/22 08:05:18;;;;;;;2.30;0.40;;;;;;;16.97;53.38;100492.56;4994320;28;20036;-61
2024/01/22 08:07:44;;;;;;;0.52;0.30;;;;;;;17.00;52.96;100494.91;4995275;28;20026;-61
2024/01/22 08:10:09;;;;;;;1.85;0.43;;;;;;;17.01;53.22;100493.88;4995274;28;20057;-61
2024/01/22 08:12:35;;;;;;;0.80;0.40;;;;;;;17.02;53.18;100484.75;4995191;28;20023;-61
2024/01/22 08:15:01;;;;;;;1.35;0.28;;;;;;;17.05;53.34;100495.22;4994224;28;20105;-62
2024/01/22 08:17:26;;;;;;;1.60;0.45;;;;;;;17.05;52.52;100498.75;4977602;28;20023;-61
2024/01/22 08:19:51;;;;;;;1.85;0.73;;;;;;;17.07;52.82;100495.84;4977761;28;20062;-61
2024/01/22 08:22:17;;;;;;;0.52;0.30;;;;;;;17.10;53.50;100492.78;4993180;28;20109;-62
2024/01/22 08:24:42;;;;;;;1.05;0.30;;;;;;;17.10;52.75;100493.66;4992663;28;20042;-62
2024/01/22 08:27:08;;;;;;;3.10;0.35;;;;;;;17.13;51.93;100493.28;4989079;28;20049;-62
2024/01/22 08:29:33;;;;;;;1.10;0.55;;;;;;;17.16;52.57;100492.94;4977339;28;20042;-62
2024/01/22 08:31:58;;;;;;;1.45;0.80;;;;;;;17.19;52.96;100497.13;4977251;28;20034;-62
2024/01/22 08:34:24;;;;;;;1.17;0.50;;;;;;;17.19;52.88;100484.44;4976836;28;20371;-63
2024/01/22 08:36:49;;;;;;;2.90;0.30;;;;;;;17.23;53.15;100493.88;4993649;28;20113;-63
2024/01/22 08:39:15;;;;;;;0.57;0.40;;;;;;;17.23;52.76;100493.88;4951757;28;20039;-62
2024/01/22 08:41:41;;;;;;;2.38;0.40;;;;;;;17.23;53.02;100490.31;4973491;28;20471;-62
2024/01/22 08:44:06;;;;;;;2.28;0.47;;;;;;;17.22;53.25;100485.97;4990315;28;20470;-62
2024/01/22 08:46:32;;;;;;;0.88;0.47;;;;;;;17.27;53.02;100483.53;4974245;28;20027;-62
2024/01/22 08:48:59;;;;;;;0.82;0.32;;;;;;;17.34;53.12;100498.03;4975493;28;20068;-62
2024/01/22 08:51:24;;;;;;;2.30;0.50;;;;;;;17.40;53.14;100500.00;4975516;28;20521;-62
2024/01/22 08:53:50;;;;;;;4.07;0.90;;;;;;;17.48;52.41;100497.25;4991566;28;20086;-63
2024/01/22 08:56:17;;;;;;;3.13;0.55;;;;;;;17.56;52.14;100493.69;4993219;28;20030;-62
2024/01/22 08:58:43;;;;;;;1.08;0.50;;;;;;;17.61;52.32;100502.94;4994386;28;20110;-62
2024/01/22 09:01:08;;;;;;;1.13;0.40;;;;;;;17.67;52.55;100502.19;4995797;28;20050;-62
2024/01/22 09:03:33;;;;;;;5.25;0.82;;;;;;;17.76;52.33;100505.66;4994534;28;20031;-62
2024/01/22 09:06:00;;;;;;;4.03;0.30;;;;;;;17.81;52.08;100523.06;4996732;28;20033;-63
2024/01/22 09:08:26;;;;;;;4.80;0.95;;;;;;;17.83;51.96;100522.88;4995524;28;20026;-63
2024/01/22 09:10:51;;;;;;;1.38;0.52;;;;;;;17.86;51.77;100504.41;4994880;28;20054;-63
2024/01/22 09:13:16;;;;;;;5.63;1.45;;;;;;;17.90;52.25;100513.81;4993235;28;20042;-62
2024/01/22 09:15:42;;;;;;;4.85;1.85;;;;;;;17.91;52.54;100510.09;4971791;28;20027;-63
2024/01/22 09:18:09;;;;;;;2.03;0.60;;;;;;;17.95;52.33;100503.28;4979498;28;20037;-63
2024/01/22 09:20:34;;;;;;;2.22;0.85;;;;;;;17.96;51.92;100496.84;4994286;28;20027;-62
2024/01/22 09:23:01;;;;;;;1.75;1.08;;;;;;;18.01;52.25;100499.81;4995777;28;20044;-64
2024/01/22 09:25:26;;;;;;;3.35;1.30;;;;;;;18.10;52.07;100491.59;4979036;28;20045;-63
2024/01/22 09:27:52;;;;;;;3.70;0.70;;;;;;;18.20;52.27;100478.63;4975631;28;20550;-63
2024/01/22 09:30:19;;;;;;;1.98;0.82;;;;;;;18.34;51.69;100483.22;4979083;28;20159;-62
2024/01/22 09:32:45;;;;;;;6.68;0.85;;;;;;;18.47;51.25;100477.97;4974903;28;20035;-63
2024/01/22 09:35:10;;;;;;;6.82;2.08;;;;;;;18.58;51.61;100480.22;4978139;28;20068;-63
2024/01/22 09:37:36;;;;;;;5.28;1.00;;;;;;;18.66;51.79;100471.13;4994089;28;20038;-63
2024/01/22 09:40:01;;;;;;;4.05;1.30;;;;;;;18.69;51.43;100485.16;4993874;28;20039;-62
2024/01/22 09:42:27;;;;;;;3.95;0.85;;;;;;;18.77;50.81;100481.50;4992455;28;20085;-63
2024/01/22 09:44:53;;;;;;;2.95;0.65;;;;;;;18.79;51.23;100496.53;4993908;28;20490;-62
2024/01/22 09:47:20;;;;;;;4.95;0.73;;;;;;;18.77;50.71;100493.19;4992969;28;20046;-63
2024/01/22 09:49:48;;;;;;;6.72;1.30;;;;;;;18.79;51.13;100488.41;4994120;28;20049;-63
2024/01/22 09:52:16;;;;;;;4.60;0.95;;;;;;;18.79;50.58;100515.53;4976475;28;20056;-63
2024/01/22 09:54:44;;;;;;;6.35;1.08;;;;;;;18.77;51.50;100490.47;4976500;28;20111;-63
2024/01/22 09:57:17;;;;;;;6.13;0.70;;;;;;;18.79;50.77;100498.44;4992611;28;20522;-64
2024/01/22 09:59:43;;;;;;;;;;;;;;;18.80;51.35;100505.53;4993420;28;20062;-63
2024/01/22 10:02:10;;;;;;;4.25;1.13;;;;;;;18.82;50.78;100503.47;4976277;28;19957;-62
2024/01/22 10:04:36;;;;;;;6.22;0.73;;;;;;;18.87;50.53;100515.44;4992667;28;20041;-63
2024/01/22 10:07:01;;;;;;;2.22;0.65;;;;;;;18.90;50.62;100501.47;4990924;28;20387;-63
2024/01/22 10:09:27;;;;;;;5.57;0.75;;;;;;;18.95;50.64;100519.94;4983057;28;20081;-64
2024/01/22 10:11:52;;;;;;;2.03;0.68;;;;;;;18.97;50.64;100534.16;4957871;28;20085;-62
2024/01/22 10:14:28;;;;;;;5.95;0.63;;;;;;;18.96;50.71;100522.44;4978859;28;20027;-62
2024/01/22 10:16:54;;;;;;;3.42;0.40;;;;;;;18.94;50.64;100502.78;5001842;28;20027;-62
2024/01/22 10:19:24;;;;;;;2.67;0.57;;;;;;;18.96;50.58;100506.16;4977186;28;20030;-61
2024/01/22 10:21:59;;;;;;;2.53;0.40;;;;;;;18.96;50.04;100518.88;4975541;28;20037;-61
2024/01/22 10:24:25;;;;;;;2.80;0.50;;;;;;;18.97;51.03;100513.28;4990099;28;20045;-62
2024/01/22 10:26:50;;;;;;;2.50;0.43;;;;;;;19.02;50.40;100510.81;4990310;28;20047;-62
2024/01/22 10:29:35;;;;;;;1.10;0.30;;;;;;;19.00;50.58;100512.91;4991623;28;20084;-62
2024/01/22 10:32:01;;;;;;;3.90;0.52;;;;;;;18.92;50.18;100510.28;4988147;28;20045;-61
2024/01/22 10:34:28;;;;;;;2.80;0.77;;;;;;;18.92;50.84;100515.72;4975481;28;20034;-61
2024/01/22 10:37:13;;;;;;;3.15;0.68;;;;;;;18.93;50.58;100501.09;4991540;28;20452;-62
2024/01/22 10:39:40;;;;;;;1.85;0.40;;;;;;;18.86;50.81;100521.91;4991628;28;20037;-62
2024/01/22 10:42:10;;;;;;;1.95;0.40;;;;;;;18.83;50.27;100527.72;4953968;28;20042;-61
2024/01/22 10:44:50;;;;;;;1.27;0.30;;;;;;;18.82;50.47;100515.16;4992371;28;20038;-62
2024/01/22 10:47:15;;;;;;;4.20;0.50;;;;;;;18.81;50.40;100507.22;4991145;28;20030;-62
2024/01/22 10:49:46;;;;;;;2.63;0.65;;;;;;;18.85;50.54;100508.50;4991662;28;20110;-62
2024/01/22 10:52:13;;;;;;;4.53;0.80;;;;;;;18.87;50.41;100511.91;4978791;28;20045;-61
2024/01/22 10:54:38;;;;;;;3.30;0.35;;;;;;;18.88;50.45;100497.28;4995953;28;20117;-62
2024/01/22 10:57:37;;;;;;;2.10;1.23;;;;;;;18.92;50.90;100506.72;4995188;28;20065;-61
2024/01/22 11:00:06;;;;;;;2.20;0.70;;;;;;;18.91;50.36;100508.59;4995147;28;20038;-61
2024/01/22 11:02:34;;;;;;;2.97;0.52;;;;;;;18.90;50.33;100509.63;4995110;28;20126;-61
2024/01/22 11:05:14;;;;;;;2.30;0.47;;;;;;;18.88;50.49;100514.41;4977815;28;20089;-61
2024/01/22 11:07:40;;;;;;;2.13;0.77;;;;;;;18.89;50.66;100516.09;4978686;28;20117;-66
2024/01/22 11:10:08;;;;;;;3.92;0.77;;;;;;;18.84;50.83;100526.69;4994576;28;20451;-61
2024/01/22 11:12:50;;;;;;;6.68;0.95;;;;;;;18.78;50.98;100524.72;4996185;28;20093;-61
2024/01/22 11:15:15;;;;;;;5.83;0.80;;;;;;;18.72;50.51;100524.63;4994931;28;20129;-61
2024/01/22 11:17:41;;;;;;;4.00;0.40;;;;;;;18.66;50.77;100560.66;4994628;28;20118;-61
2024/01/22 11:20:18;;;;;;;1.48;0.50;;;;;;;18.55;50.68;100560.13;4978562;28;20080;-60
2024/01/22 11:22:59;;;;;;;1.42;0.70;;;;;;;18.39;51.01;100587.41;4978578;28;20390;-61